Flagler County Airport


Codes: KXFL/
Name: Flagler County Airport
City: Palm Coast
Country: United States
Elevation: 33 ft.
Website:
Wikipedia:

Photos at Flagler County Airport


   Photos courtesy of SpottingLog. You can add your own sightings and photos by signing up for a free trial today.



No photos found.

Weather at Flagler County Airport


Time (UTC)DescriptionTempratureWindCloud coverageVisibilityPressureHumidity
16-Jun-2024 00:00Broken Clouds29°C4 mph, SE75%10000m1016hPa79%
16-Jun-2024 03:00Light Rain27°C2 mph, SW82%10000m1016hPa84%
16-Jun-2024 06:00Overcast Clouds25°C2 mph, SW90%10000m1016hPa90%
16-Jun-2024 09:00Overcast Clouds22°C2 mph, NW98%10000m1016hPa95%
16-Jun-2024 12:00Overcast Clouds25°C0 mph, S94%10000m1018hPa85%
16-Jun-2024 15:00Overcast Clouds31°C4 mph, E100%10000m1018hPa56%
16-Jun-2024 18:00Light Rain32°C11 mph, E100%10000m1018hPa53%
16-Jun-2024 21:00Scattered Clouds30°C11 mph, E50%10000m1017hPa61%
17-Jun-2024 00:00Scattered Clouds27°C9 mph, E33%10000m1018hPa74%
17-Jun-2024 03:00Broken Clouds26°C7 mph, E58%10000m1018hPa77%
17-Jun-2024 06:00Broken Clouds25°C7 mph, E72%10000m1018hPa78%
17-Jun-2024 09:00Overcast Clouds25°C7 mph, E100%10000m1017hPa76%
17-Jun-2024 12:00Overcast Clouds27°C9 mph, E100%10000m1018hPa67%
17-Jun-2024 15:00Overcast Clouds28°C11 mph, E100%10000m1019hPa66%
17-Jun-2024 18:00Light Rain30°C13 mph, E97%10000m1018hPa59%
17-Jun-2024 21:00Light Rain29°C13 mph, E92%10000m1017hPa63%
18-Jun-2024 00:00Light Rain27°C9 mph, E93%10000m1018hPa72%
18-Jun-2024 03:00Broken Clouds26°C9 mph, E62%10000m1018hPa70%
18-Jun-2024 06:00Broken Clouds26°C9 mph, E76%10000m1018hPa71%
18-Jun-2024 09:00Broken Clouds26°C9 mph, E62%10000m1017hPa69%
18-Jun-2024 12:00Light Rain26°C9 mph, E72%10000m1018hPa75%
18-Jun-2024 15:00Light Rain30°C11 mph, E100%10000m1018hPa54%
18-Jun-2024 18:00Light Rain29°C13 mph, E98%10000m1018hPa58%
18-Jun-2024 21:00Light Rain29°C11 mph, E100%10000m1017hPa54%
19-Jun-2024 00:00Light Rain25°C11 mph, E99%10000m1017hPa83%
19-Jun-2024 03:00Light Rain25°C11 mph, E100%10000m1018hPa73%
19-Jun-2024 06:00Overcast Clouds25°C11 mph, E98%10000m1018hPa62%
19-Jun-2024 09:00Broken Clouds25°C9 mph, E81%10000m1017hPa65%
19-Jun-2024 12:00Light Rain26°C9 mph, E53%10000m1018hPa71%
19-Jun-2024 15:00Light Rain27°C13 mph, E39%10000m1019hPa68%
19-Jun-2024 18:00Light Rain29°C16 mph, E53%10000m1019hPa49%
19-Jun-2024 21:00Clear Sky28°C13 mph, E1%10000m1017hPa55%
20-Jun-2024 00:00Few Clouds26°C11 mph, NE14%10000m1018hPa60%
20-Jun-2024 03:00Light Rain26°C13 mph, NE67%10000m1018hPa69%
20-Jun-2024 06:00Light Rain26°C11 mph, NE55%10000m1017hPa67%
20-Jun-2024 09:00Few Clouds25°C9 mph, NE20%10000m1016hPa71%
20-Jun-2024 12:00Light Rain25°C9 mph, NE29%5335m1017hPa85%
20-Jun-2024 15:00Moderate Rain26°C9 mph, N90%8083m1017hPa84%
20-Jun-2024 18:00Moderate Rain25°C11 mph, N95%10000m1015hPa90%
20-Jun-2024 21:00Moderate Rain25°C11 mph, W100%10000m1013hPa87%